Loyal, Oklahoma
Current Conditions -  °F | °C
As of 1:35 PM on Thursday 27 Nov 2014 (Local Time) from KJWG Reporting Station
Clear Clear  
Wind Chill: 44°   Ceiling: Unl
Heat Index: 49°   Visibility: 10mi
Dew Point: 24°   Wind: 13mph
Humidity: 37%   Direction: 200°SSW
Pressure: 30.4"   Gusts: 17mph
Location:  35.97°N, 98.12°W
Report Text: KJWG 271935Z AUTO 20011G15KT 10SM CLR 10/M05 A3040 RMK AO2 T00951047
Loading
Personal Weather Stations






























Interactive Weather Map New forecast layout! Learn more

10-Day Weather Forecast

Advertisements
Track Severe Weather on mobile